DKH1258 ZBAA-ZSPD
Flight info
| Callsign | DKH1258 |
|---|---|
| Flight time | N/A |
| Altitude | 33100 |
| Route | ELKUR W40 YQG W142 DALIM A593 DPX A470 DALNU W166 ZJ W167 SASAN R343 EKIMU |
| Aircraft | A21N/M-SDE3FGHIRWY/LB1 |
Departure
| Time | 2026-05-04 07:27 |
|---|---|
| Airport | Beijing Capital International Airport (ZBAA) |
Arrival
| Time | N/A |
|---|---|
| Airport | Shanghai Pudong International Airport (ZSPD) |
| Time | Latitude | Longitude | Altitude | Speed | Heading |
|---|---|---|---|---|---|
| 2026-05-04 06:54 | 40.07715 | 116.60171 | 119 ft | 0 kts | 23° |
| 2026-05-04 07:14 | 40.07704 | 116.60165 | 119 ft | 2 kts | 23° |
| 2026-05-04 07:15 | 40.07696 | 116.60160 | 119 ft | 1 kts | 23° |
| 2026-05-04 07:15 | 40.07690 | 116.60157 | 119 ft | 2 kts | 23° |
| 2026-05-04 07:15 | 40.07681 | 116.60152 | 119 ft | 2 kts | 23° |
| 2026-05-04 07:15 | 40.07667 | 116.60144 | 119 ft | 2 kts | 23° |
| 2026-05-04 07:16 | 40.07658 | 116.60139 | 119 ft | 1 kts | 359° |
| 2026-05-04 07:16 | 40.07643 | 116.60142 | 119 ft | 2 kts | 354° |
| 2026-05-04 07:16 | 40.07633 | 116.60143 | 119 ft | 1 kts | 20° |
| 2026-05-04 07:16 | 40.07625 | 116.60137 | 119 ft | 1 kts | 5° |
| 2026-05-04 07:17 | 40.07611 | 116.60143 | 119 ft | 2 kts | 315° |
| 2026-05-04 07:17 | 40.07606 | 116.60153 | 119 ft | 1 kts | 289° |
| 2026-05-04 07:17 | 40.07605 | 116.60159 | 119 ft | 0 kts | 295° |
| 2026-05-04 07:20 | 40.07605 | 116.60158 | 119 ft | 0 kts | 295° |
| 2026-05-04 07:20 | 40.07610 | 116.60142 | 119 ft | 3 kts | 295° |
| 2026-05-04 07:20 | 40.07623 | 116.60107 | 119 ft | 4 kts | 295° |
| 2026-05-04 07:20 | 40.07628 | 116.60062 | 119 ft | 5 kts | 268° |
| 2026-05-04 07:22 | 40.08006 | 116.59867 | 119 ft | 16 kts | 353° |
| 2026-05-04 07:22 | 40.08125 | 116.59849 | 119 ft | 18 kts | 353° |
| 2026-05-04 07:23 | 40.08254 | 116.59827 | 119 ft | 18 kts | 353° |
| 2026-05-04 07:23 | 40.08383 | 116.59807 | 119 ft | 18 kts | 355° |
| 2026-05-04 07:23 | 40.08506 | 116.59789 | 119 ft | 17 kts | 353° |
| 2026-05-04 07:23 | 40.08621 | 116.59772 | 119 ft | 16 kts | 353° |
| 2026-05-04 07:24 | 40.08736 | 116.59754 | 119 ft | 16 kts | 354° |
| 2026-05-04 07:24 | 40.08833 | 116.59739 | 119 ft | 6 kts | 353° |
| 2026-05-04 07:24 | 40.08872 | 116.59718 | 119 ft | 6 kts | 325° |
| 2026-05-04 07:24 | 40.08888 | 116.59665 | 119 ft | 6 kts | 267° |
| 2026-05-04 07:25 | 40.08887 | 116.59648 | 119 ft | 0 kts | 263° |
| 2026-05-04 07:26 | 40.08174 | 116.59602 | 119 ft | 106 kts | 172° |
| 2026-05-04 07:27 | 40.07243 | 116.59749 | 119 ft | 162 kts | 173° |
| 2026-05-04 07:27 | 40.06009 | 116.59933 | 401 ft | 184 kts | 174° |
| 2026-05-04 07:27 | 40.04735 | 116.60108 | 1081 ft | 186 kts | 175° |
| 2026-05-04 07:27 | 40.03522 | 116.60270 | 1711 ft | 190 kts | 175° |
| 2026-05-04 07:28 | 40.02220 | 116.60481 | 2351 ft | 189 kts | 175° |
| 2026-05-04 07:28 | 40.00869 | 116.60706 | 2625 ft | 202 kts | 174° |
| 2026-05-04 07:28 | 39.99446 | 116.60944 | 2910 ft | 215 kts | 174° |
| 2026-05-04 07:28 | 39.97876 | 116.61196 | 3144 ft | 234 kts | 174° |
| 2026-05-04 07:29 | 39.96206 | 116.61461 | 3459 ft | 251 kts | 174° |
| 2026-05-04 07:29 | 39.94435 | 116.61739 | 3975 ft | 259 kts | 174° |
| 2026-05-04 07:29 | 39.92621 | 116.62029 | 4654 ft | 261 kts | 174° |
| 2026-05-04 07:29 | 39.90828 | 116.62315 | 5276 ft | 264 kts | 175° |
| 2026-05-04 07:30 | 39.89015 | 116.62595 | 5901 ft | 268 kts | 175° |
| 2026-05-04 07:30 | 39.87138 | 116.62887 | 6555 ft | 271 kts | 175° |
| 2026-05-04 07:30 | 39.85245 | 116.63177 | 7228 ft | 273 kts | 175° |
| 2026-05-04 07:30 | 39.83373 | 116.63467 | 7878 ft | 275 kts | 175° |
| 2026-05-04 07:31 | 39.81444 | 116.63764 | 8510 ft | 279 kts | 175° |
| 2026-05-04 07:31 | 39.79519 | 116.64058 | 9111 ft | 282 kts | 176° |
| 2026-05-04 07:33 | 39.64386 | 116.66523 | 11990 ft | 346 kts | 174° |
| 2026-05-04 07:33 | 39.61991 | 116.66956 | 12561 ft | 348 kts | 174° |
| 2026-05-04 07:33 | 39.59584 | 116.67390 | 13116 ft | 350 kts | 175° |
| 2026-05-04 07:33 | 39.57570 | 116.67751 | 13571 ft | 352 kts | 175° |
| 2026-05-04 07:34 | 39.55137 | 116.68185 | 14107 ft | 354 kts | 176° |
| 2026-05-04 07:34 | 39.52709 | 116.68617 | 14625 ft | 356 kts | 176° |
| 2026-05-04 07:34 | 39.50238 | 116.69055 | 15137 ft | 359 kts | 176° |
| 2026-05-04 07:34 | 39.47793 | 116.69487 | 15627 ft | 361 kts | 176° |
| 2026-05-04 07:35 | 39.45303 | 116.69926 | 16110 ft | 363 kts | 177° |
| 2026-05-04 07:35 | 39.42795 | 116.70369 | 16583 ft | 365 kts | 177° |
| 2026-05-04 07:35 | 39.40297 | 116.70809 | 17041 ft | 367 kts | 178° |
| 2026-05-04 07:35 | 39.37765 | 116.71255 | 17491 ft | 369 kts | 178° |
| 2026-05-04 07:36 | 39.35218 | 116.71703 | 17926 ft | 372 kts | 178° |
| 2026-05-04 07:36 | 39.32651 | 116.72154 | 18353 ft | 374 kts | 178° |
| 2026-05-04 07:38 | 39.14482 | 116.75339 | 20106 ft | 382 kts | 179° |
| 2026-05-04 07:38 | 39.11854 | 116.75799 | 20476 ft | 385 kts | 179° |
| 2026-05-04 07:38 | 39.09189 | 116.76264 | 20843 ft | 387 kts | 180° |
| 2026-05-04 07:38 | 39.06557 | 116.76723 | 21202 ft | 388 kts | 180° |
| 2026-05-04 07:39 | 39.03858 | 116.77194 | 21553 ft | 390 kts | 180° |
| 2026-05-04 07:39 | 39.01168 | 116.77663 | 21854 ft | 394 kts | 180° |
| 2026-05-04 07:39 | 38.98429 | 116.78135 | 22041 ft | 400 kts | 180° |
| 2026-05-04 07:39 | 38.95665 | 116.78610 | 22187 ft | 408 kts | 180° |
| 2026-05-04 07:40 | 38.92810 | 116.79099 | 22353 ft | 414 kts | 179° |
| 2026-05-04 07:40 | 38.89955 | 116.79591 | 22520 ft | 421 kts | 179° |
| 2026-05-04 07:40 | 38.87023 | 116.80097 | 22696 ft | 427 kts | 178° |
| 2026-05-04 07:40 | 38.84106 | 116.80607 | 22934 ft | 431 kts | 178° |
| 2026-05-04 07:41 | 38.81102 | 116.81135 | 23245 ft | 433 kts | 178° |
| 2026-05-04 07:41 | 38.78134 | 116.81655 | 23559 ft | 434 kts | 179° |
| 2026-05-04 07:41 | 38.75138 | 116.82179 | 23865 ft | 436 kts | 179° |
| 2026-05-04 07:41 | 38.72162 | 116.82696 | 24170 ft | 437 kts | 179° |
| 2026-05-04 07:42 | 38.69121 | 116.83223 | 24466 ft | 439 kts | 179° |
| 2026-05-04 07:42 | 38.66109 | 116.83744 | 24751 ft | 440 kts | 179° |
| 2026-05-04 07:42 | 38.63079 | 116.84267 | 25036 ft | 442 kts | 180° |
| 2026-05-04 07:42 | 38.60047 | 116.84790 | 25330 ft | 443 kts | 180° |
| 2026-05-04 07:43 | 38.56993 | 116.85316 | 25620 ft | 443 kts | 180° |
| 2026-05-04 07:43 | 38.53968 | 116.85836 | 25883 ft | 445 kts | 180° |
| 2026-05-04 07:43 | 38.50859 | 116.86370 | 26135 ft | 446 kts | 180° |
| 2026-05-04 07:43 | 38.47810 | 116.86893 | 26381 ft | 448 kts | 180° |
| 2026-05-04 07:44 | 38.44728 | 116.87421 | 26627 ft | 449 kts | 180° |
| 2026-05-04 07:44 | 38.41622 | 116.87955 | 26894 ft | 450 kts | 180° |
| 2026-05-04 07:44 | 38.38550 | 116.88481 | 27140 ft | 451 kts | 181° |
| 2026-05-04 07:44 | 38.35436 | 116.89014 | 27381 ft | 452 kts | 181° |
| 2026-05-04 07:45 | 38.32311 | 116.89548 | 27619 ft | 453 kts | 181° |
| 2026-05-04 07:45 | 38.29233 | 116.90075 | 27837 ft | 454 kts | 181° |
| 2026-05-04 07:45 | 38.26089 | 116.90611 | 28065 ft | 455 kts | 181° |
| 2026-05-04 07:45 | 38.22967 | 116.91144 | 28290 ft | 456 kts | 181° |
| 2026-05-04 07:46 | 38.19796 | 116.91685 | 28526 ft | 457 kts | 181° |
| 2026-05-04 07:46 | 38.16659 | 116.92219 | 28748 ft | 458 kts | 181° |
| 2026-05-04 07:46 | 38.13518 | 116.92753 | 28985 ft | 458 kts | 181° |
| 2026-05-04 07:46 | 38.10381 | 116.93286 | 29211 ft | 459 kts | 181° |
| 2026-05-04 07:47 | 38.07209 | 116.93825 | 29437 ft | 460 kts | 182° |
| 2026-05-04 07:47 | 38.04044 | 116.94361 | 29634 ft | 461 kts | 182° |
| 2026-05-04 07:47 | 38.00888 | 116.94895 | 29821 ft | 462 kts | 182° |
| 2026-05-04 07:49 | 37.83038 | 116.97925 | 31529 ft | 452 kts | 183° |
| 2026-05-04 07:49 | 37.79910 | 116.98450 | 31744 ft | 452 kts | 183° |
| 2026-05-04 07:49 | 37.76791 | 116.98972 | 31928 ft | 453 kts | 183° |
| 2026-05-04 07:50 | 37.73709 | 116.99490 | 32146 ft | 452 kts | 184° |
| 2026-05-04 07:50 | 37.70576 | 117.00017 | 32389 ft | 452 kts | 183° |
| 2026-05-04 07:50 | 37.67478 | 117.00537 | 32605 ft | 451 kts | 184° |
| 2026-05-04 07:50 | 37.64377 | 117.01058 | 32785 ft | 452 kts | 184° |
| 2026-05-04 07:51 | 37.61288 | 117.01575 | 32959 ft | 452 kts | 184° |
| 2026-05-04 07:51 | 37.58179 | 117.02096 | 33023 ft | 452 kts | 184° |
| 2026-05-04 07:51 | 37.51934 | 117.03141 | 33029 ft | 451 kts | 184° |
| 2026-05-04 07:52 | 37.45706 | 117.04174 | 33029 ft | 459 kts | 184° |
| 2026-05-04 07:52 | 37.39335 | 117.05235 | 33032 ft | 466 kts | 184° |
| 2026-05-04 07:54 | 37.13434 | 117.09543 | 33030 ft | 471 kts | 183° |
| 2026-05-04 07:55 | 37.06987 | 117.10602 | 33029 ft | 472 kts | 182° |
| 2026-05-04 07:55 | 37.00516 | 117.11661 | 33031 ft | 470 kts | 181° |
| 2026-05-04 07:56 | 36.94056 | 117.12727 | 33020 ft | 468 kts | 181° |
| 2026-05-04 07:56 | 36.87669 | 117.13788 | 33011 ft | 467 kts | 181° |
| 2026-05-04 07:57 | 36.81193 | 117.14855 | 33005 ft | 468 kts | 181° |
| 2026-05-04 07:57 | 36.74780 | 117.15910 | 33006 ft | 468 kts | 181° |
| 2026-05-04 07:58 | 36.68355 | 117.16966 | 33005 ft | 467 kts | 181° |
| 2026-05-04 07:58 | 36.61904 | 117.18018 | 33004 ft | 468 kts | 181° |
| 2026-05-04 07:59 | 36.55477 | 117.19071 | 33001 ft | 467 kts | 181° |
| 2026-05-04 07:59 | 36.49074 | 117.20113 | 33006 ft | 467 kts | 181° |
| 2026-05-04 08:00 | 36.42630 | 117.21328 | 33003 ft | 472 kts | 177° |
| 2026-05-04 08:02 | 36.17114 | 117.30458 | 33001 ft | 479 kts | 171° |
| 2026-05-04 08:02 | 36.10693 | 117.32838 | 33009 ft | 479 kts | 171° |
| 2026-05-04 08:03 | 36.04348 | 117.35187 | 33026 ft | 480 kts | 172° |
| 2026-05-04 08:03 | 35.97982 | 117.37539 | 33066 ft | 479 kts | 171° |
| 2026-05-04 08:04 | 35.91594 | 117.39928 | 33104 ft | 479 kts | 171° |
| 2026-05-04 08:04 | 35.85254 | 117.42305 | 33127 ft | 478 kts | 171° |
| 2026-05-04 08:05 | 35.78932 | 117.44662 | 33131 ft | 478 kts | 171° |
| 2026-05-04 08:05 | 35.72559 | 117.47041 | 33135 ft | 478 kts | 171° |
| 2026-05-04 08:06 | 35.66213 | 117.49403 | 33139 ft | 479 kts | 171° |
| 2026-05-04 08:06 | 35.59853 | 117.51765 | 33140 ft | 479 kts | 171° |
| 2026-05-04 08:08 | 35.34448 | 117.61169 | 33141 ft | 478 kts | 171° |
| 2026-05-04 08:11 | 35.05862 | 117.71677 | 33139 ft | 478 kts | 172° |
| 2026-05-04 08:11 | 34.96343 | 117.75154 | 33141 ft | 475 kts | 171° |
| 2026-05-04 08:12 | 34.90042 | 117.77460 | 33140 ft | 473 kts | 170° |
| 2026-05-04 08:12 | 34.83776 | 117.79752 | 33135 ft | 473 kts | 169° |
| 2026-05-04 08:13 | 34.77484 | 117.82044 | 33132 ft | 472 kts | 170° |
| 2026-05-04 08:13 | 34.71220 | 117.84296 | 33125 ft | 473 kts | 170° |
| 2026-05-04 08:14 | 34.64896 | 117.86563 | 33119 ft | 473 kts | 170° |
| 2026-05-04 08:16 | 34.39752 | 117.95571 | 33114 ft | 472 kts | 170° |
| 2026-05-04 08:16 | 34.33490 | 117.97807 | 33114 ft | 471 kts | 170° |
| 2026-05-04 08:17 | 34.27221 | 118.00043 | 33114 ft | 472 kts | 170° |
| 2026-05-04 08:17 | 34.20940 | 118.02324 | 33112 ft | 473 kts | 169° |
| 2026-05-04 08:19 | 33.95818 | 118.11471 | 33114 ft | 473 kts | 169° |
| 2026-05-04 08:20 | 33.89583 | 118.13751 | 33115 ft | 475 kts | 168° |
| 2026-05-04 08:20 | 33.83337 | 118.16585 | 33117 ft | 479 kts | 162° |
| 2026-05-04 08:21 | 33.77401 | 118.20197 | 33119 ft | 487 kts | 156° |
| 2026-05-04 08:21 | 33.71706 | 118.24641 | 33126 ft | 490 kts | 151° |
| 2026-05-04 08:22 | 33.66136 | 118.29299 | 33129 ft | 490 kts | 151° |
| 2026-05-04 08:24 | 33.43773 | 118.47830 | 33138 ft | 489 kts | 151° |
| 2026-05-04 08:24 | 33.38168 | 118.52450 | 33142 ft | 491 kts | 151° |
| 2026-05-04 08:25 | 33.32554 | 118.57072 | 33140 ft | 490 kts | 151° |
| 2026-05-04 08:25 | 33.26955 | 118.61677 | 33139 ft | 489 kts | 151° |
| 2026-05-04 08:27 | 33.04667 | 118.80108 | 33142 ft | 486 kts | 150° |
| 2026-05-04 08:28 | 32.99151 | 118.84669 | 33140 ft | 484 kts | 150° |
| 2026-05-04 08:28 | 32.93652 | 118.89215 | 33142 ft | 481 kts | 149° |
| 2026-05-04 08:29 | 32.88147 | 118.93765 | 33141 ft | 481 kts | 149° |
| 2026-05-04 08:31 | 32.66215 | 119.11932 | 33141 ft | 482 kts | 149° |
| 2026-05-04 08:33 | 32.44256 | 119.30050 | 33141 ft | 482 kts | 149° |
| 2026-05-04 08:35 | 32.22284 | 119.48071 | 33141 ft | 482 kts | 149° |
| 2026-05-04 08:35 | 32.16792 | 119.52559 | 33141 ft | 482 kts | 149° |
| 2026-05-04 08:37 | 31.98436 | 119.67694 | 33140 ft | 484 kts | 145° |